Station Historical Data
Daily Summary for April 16, 2017 Units:  Both    English   Metric
« Previous Day
Next Day »
Daily Weekly Monthly Yearly Custom
  High: Low: Average:
Temperature: 80.6 °F /  27 °C 59.3 °F /  15.2 °C 70.3 °F /  21.3 °C
Dew Point: 59.1 °F /  15.1 °C 52.8 °F /  11.6 °C 55.3 °F /  12.9 °C
Humidity: 87% 41% 61%
Wind Speed: 1.0mph /  1.6km/h - 0.1mph /  0.2km/h
Wind Gust: 5.0mph /  8km/h - -
Wind- - NW
Pressure: 30.29 in /  1025.6 hPa 30.13 in /  1020.2 hPa -
Precipitation: 0.00 in /  0 mm    
Historical Graphs
 
 
Tabular Data for April 16, 2017
Time Temperature Dew Point Pressure Wind Wind Speed Wind Gust Humidity Rainfall Rate (Hourly) solar Conditions
00:00 64.1 °F /  17.8 °C 53.7 °F /  12.1 °C 30.25in /  1024.3hPa Calm     69% 0.00in /  0mm WeatherDisplay:10.37 W/m2 CLR
00:15 63.5 °F /  17.5 °C 53.9 °F /  12.2 °C 30.25in /  1024.3hPa Calm     71% 0.00in /  0mm WeatherDisplay:10.37 W/m2 CLR
00:30 63.1 °F /  17.3 °C 53.9 °F /  12.2 °C 30.25in /  1024.3hPa Calm     72% 0.00in /  0mm WeatherDisplay:10.37 W/m2 CLR
00:45 62.5 °F /  16.9 °C 53.8 °F /  12.1 °C 30.25in /  1024.3hPa Calm     73% 0.00in /  0mm WeatherDisplay:10.37 W/m2 CLR
01:00 62.1 °F /  16.7 °C 53.7 °F /  12.1 °C 30.25in /  1024.3hPa Calm     74% 0.00in /  0mm WeatherDisplay:10.37 W/m2 CLR
01:15 61.7 °F /  16.5 °C 53.3 °F /  11.8 °C 30.25in /  1024.3hPa Calm     74% 0.00in /  0mm WeatherDisplay:10.37 W/m2 CLR
01:30 61.7 °F /  16.5 °C 53.0 °F /  11.7 °C 30.25in /  1024.3hPa Calm     73% 0.00in /  0mm WeatherDisplay:10.37 W/m2 CLR
01:45 63.1 °F /  17.3 °C 53.1 °F /  11.7 °C 30.25in /  1024.3hPa Calm     70% 0.00in /  0mm WeatherDisplay:10.37 W/m2 CLR
02:00 63.4 °F /  17.4 °C 53.0 °F /  11.7 °C 30.25in /  1024.3hPa Calm     69% 0.00in /  0mm WeatherDisplay:10.37 W/m2 CLR
02:15 63.8 °F /  17.7 °C 53.0 °F /  11.7 °C 30.24in /  1023.9hPa Calm   1.0mph /  1.6km/h 68% 0.00in /  0mm WeatherDisplay:10.37 W/m2 CLR
02:30 64.4 °F /  18 °C 52.8 °F /  11.6 °C 30.24in /  1023.9hPa Calm   1.0mph /  1.6km/h 66% 0.00in /  0mm WeatherDisplay:10.37 W/m2 CLR
02:45 64.2 °F /  17.9 °C 53.0 °F /  11.7 °C 30.24in /  1023.9hPa Calm     67% 0.00in /  0mm WeatherDisplay:10.37 W/m2 CLR
03:00 63.7 °F /  17.6 °C 53.4 °F /  11.9 °C 30.24in /  1023.9hPa Calm     69% 0.00in /  0mm WeatherDisplay:10.37 W/m2 CLR
03:15 63.4 °F /  17.4 °C 53.4 °F /  11.9 °C 30.23in /  1023.6hPa Calm     70% 0.00in /  0mm WeatherDisplay:10.37 W/m2 CLR
03:30 63.3 °F /  17.4 °C 53.7 °F /  12.1 °C 30.23in /  1023.6hPa Calm     71% 0.00in /  0mm WeatherDisplay:10.37 W/m2 CLR
03:45 62.8 °F /  17.1 °C 53.6 °F /  12 °C 30.22in /  1023.2hPa Calm     72% 0.00in /  0mm WeatherDisplay:10.37 W/m2 CLR
04:00 62.2 °F /  16.8 °C 53.4 °F /  11.9 °C 30.22in /  1023.2hPa Calm     73% 0.00in /  0mm WeatherDisplay:10.37 W/m2 CLR
04:15 62.2 °F /  16.8 °C 53.4 °F /  11.9 °C 30.22in /  1023.2hPa Calm     73% 0.00in /  0mm WeatherDisplay:10.37 W/m2 CLR
04:30 62.2 °F /  16.8 °C 53.4 °F /  11.9 °C 30.22in /  1023.2hPa Calm     73% 0.00in /  0mm WeatherDisplay:10.37 W/m2 CLR
04:45 62.2 °F /  16.8 °C 53.4 °F /  11.9 °C 30.22in /  1023.2hPa Calm     73% 0.00in /  0mm WeatherDisplay:10.37 W/m2 CLR
05:00 62.2 °F /  16.8 °C 53.4 °F /  11.9 °C 30.22in /  1023.2hPa Calm     73% 0.00in /  0mm WeatherDisplay:10.37 W/m2 CLR
05:15 62.2 °F /  16.8 °C 53.4 °F /  11.9 °C 30.22in /  1023.2hPa Calm     73% 0.00in /  0mm WeatherDisplay:10.37 W/m2 CLR
05:30 62.2 °F /  16.8 °C 53.4 °F /  11.9 °C 30.22in /  1023.2hPa Calm     73% 0.00in /  0mm WeatherDisplay:10.37 W/m2 CLR
06:00 62.2 °F /  16.8 °C 53.4 °F /  11.9 °C 30.23in /  1023.6hPa Calm     73% 0.00in /  0mm WeatherDisplay:10.37 W/m2 CLR
06:15 62.2 °F /  16.8 °C 53.4 °F /  11.9 °C 30.23in /  1023.6hPa Calm     73% 0.00in /  0mm WeatherDisplay:10.37 W/m2 CLR
06:30 62.2 °F /  16.8 °C 53.4 °F /  11.9 °C 30.24in /  1023.9hPa Calm     73% 0.00in /  0mm WeatherDisplay:10.37 W/m2 CLR
06:45 62.2 °F /  16.8 °C 53.4 °F /  11.9 °C 30.25in /  1024.3hPa Calm     73% 0.00in /  0mm WeatherDisplay:10.37 W/m2 CLR
07:00 62.2 °F /  16.8 °C 53.4 °F /  11.9 °C 30.25in /  1024.3hPa Calm     73% 0.00in /  0mm WeatherDisplay:10.37 W/m2 CLR
07:15 62.2 °F /  16.8 °C 53.4 °F /  11.9 °C 30.25in /  1024.3hPa Calm     73% 0.00in /  0mm WeatherDisplay:10.37 W/m2 CLR
07:30 62.2 °F /  16.8 °C 53.4 °F /  11.9 °C 30.25in /  1024.3hPa Calm     73% 0.00in /  0mm WeatherDisplay:10.37 W/m2 CLR
08:00 62.2 °F /  16.8 °C 53.4 °F /  11.9 °C 30.27in /  1024.9hPa Calm     73% 0.00in /  0mm WeatherDisplay:10.37 W/m2 CLR
08:15 59.3 °F /  15.2 °C 55.4 °F /  13 °C 30.28in /  1025.3hPa Calm     87% 0.00in /  0mm WeatherDisplay:10.37 W/m2 CLR
08:30 61.0 °F /  16.1 °C 56.8 °F /  13.8 °C 30.28in /  1025.3hPa Calm     86% 0.00in /  0mm WeatherDisplay:10.37 W/m2 CLR
08:45 62.6 °F /  17 °C 57.7 °F /  14.3 °C 30.28in /  1025.3hPa Calm     84% 0.00in /  0mm WeatherDisplay:10.37 W/m2 CLR
09:00 65.0 °F /  18.3 °C 58.7 °F /  14.8 °C 30.28in /  1025.3hPa Calm   1.0mph /  1.6km/h 80% 0.00in /  0mm WeatherDisplay:10.37 W/m2 CLR
09:15 66.8 °F /  19.3 °C 59.0 °F /  15 °C 30.29in /  1025.6hPa Calm   2.0mph /  3.2km/h 76% 0.00in /  0mm WeatherDisplay:10.37 W/m2 CLR
09:30 68.1 °F /  20.1 °C 59.1 °F /  15.1 °C 30.29in /  1025.6hPa Calm   4.0mph /  6.4km/h 73% 0.00in /  0mm WeatherDisplay:10.37 W/m2 CLR
09:45 69.0 °F /  20.6 °C 58.4 °F /  14.7 °C 30.28in /  1025.3hPa Calm   5.0mph /  8km/h 69% 0.00in /  0mm WeatherDisplay:10.37 W/m2 CLR
10:00 70.4 °F /  21.3 °C 58.5 °F /  14.7 °C 30.28in /  1025.3hPa Calm   2.0mph /  3.2km/h 66% 0.00in /  0mm WeatherDisplay:10.37 W/m2 CLR
10:15 71.6 °F /  22 °C 57.4 °F /  14.1 °C 30.28in /  1025.3hPa WNW 1.0mph /  1.6km/h 2.0mph /  3.2km/h 61% 0.00in /  0mm WeatherDisplay:10.37 W/m2 CLR
10:30 71.5 °F /  21.9 °C 57.8 °F /  14.3 °C 30.28in /  1025.3hPa Calm   3.0mph /  4.8km/h 62% 0.00in /  0mm WeatherDisplay:10.37 W/m2 CLR
10:45 72.2 °F /  22.3 °C 57.1 °F /  13.9 °C 30.28in /  1025.3hPa Calm   2.0mph /  3.2km/h 59% 0.00in /  0mm WeatherDisplay:10.37 W/m2 CLR
11:00 73.3 °F /  22.9 °C 58.1 °F /  14.5 °C 30.28in /  1025.3hPa Calm   5.0mph /  8km/h 59% 0.00in /  0mm WeatherDisplay:10.37 W/m2 CLR
11:15 74.2 °F /  23.4 °C 57.5 °F /  14.2 °C 30.28in /  1025.3hPa Calm   1.0mph /  1.6km/h 56% 0.00in /  0mm WeatherDisplay:10.37 W/m2 CLR
11:30 75.4 °F /  24.1 °C 57.6 °F /  14.2 °C 30.28in /  1025.3hPa Calm   2.0mph /  3.2km/h 54% 0.00in /  0mm WeatherDisplay:10.37 W/m2 CLR
11:45 76.7 °F /  24.8 °C 58.8 °F /  14.9 °C 30.27in /  1024.9hPa Calm   5.0mph /  8km/h 54% 0.00in /  0mm WeatherDisplay:10.37 W/m2 CLR
12:00 77.6 °F /  25.3 °C 58.5 °F /  14.7 °C 30.27in /  1024.9hPa Calm   5.0mph /  8km/h 52% 0.00in /  0mm WeatherDisplay:10.37 W/m2 CLR
12:15 77.6 °F /  25.3 °C 59.1 °F /  15.1 °C 30.26in /  1024.6hPa Calm   3.0mph /  4.8km/h 53% 0.00in /  0mm WeatherDisplay:10.37 W/m2 CLR
12:30 78.8 °F /  26 °C 58.5 °F /  14.7 °C 30.26in /  1024.6hPa NW 1.0mph /  1.6km/h 3.0mph /  4.8km/h 50% 0.00in /  0mm WeatherDisplay:10.37 W/m2 CLR
12:45 80.0 °F /  26.7 °C 57.3 °F /  14.1 °C 30.25in /  1024.3hPa WNW 1.0mph /  1.6km/h 2.0mph /  3.2km/h 46% 0.00in /  0mm WeatherDisplay:10.37 W/m2 CLR
13:00 80.2 °F /  26.8 °C 58.1 °F /  14.5 °C 30.24in /  1023.9hPa Calm   2.0mph /  3.2km/h 47% 0.00in /  0mm WeatherDisplay:10.37 W/m2 CLR
13:15 80.3 °F /  26.8 °C 57.6 °F /  14.2 °C 30.23in /  1023.6hPa North 1.0mph /  1.6km/h 3.0mph /  4.8km/h 46% 0.00in /  0mm WeatherDisplay:10.37 W/m2 CLR
13:30 80.6 °F /  27 °C 57.9 °F /  14.4 °C 30.23in /  1023.6hPa Calm   2.0mph /  3.2km/h 46% 0.00in /  0mm WeatherDisplay:10.37 W/m2 CLR
14:00 79.1 °F /  26.2 °C 57.1 °F /  13.9 °C 30.21in /  1022.9hPa Calm   2.0mph /  3.2km/h 47% 0.00in /  0mm WeatherDisplay:10.37 W/m2 CLR
14:15 79.8 °F /  26.6 °C 57.8 °F /  14.3 °C 30.21in /  1022.9hPa Calm   2.0mph /  3.2km/h 47% 0.00in /  0mm WeatherDisplay:10.37 W/m2 CLR
14:30 79.8 °F /  26.6 °C 57.2 °F /  14 °C 30.20in /  1022.6hPa Calm   2.0mph /  3.2km/h 46% 0.00in /  0mm WeatherDisplay:10.37 W/m2 CLR
14:45 79.8 °F /  26.6 °C 55.9 °F /  13.3 °C 30.19in /  1022.2hPa Calm   1.0mph /  1.6km/h 44% 0.00in /  0mm WeatherDisplay:10.37 W/m2 CLR
15:00 79.4 °F /  26.3 °C 58.0 °F /  14.4 °C 30.19in /  1022.2hPa Calm   3.0mph /  4.8km/h 48% 0.00in /  0mm WeatherDisplay:10.37 W/m2 CLR
15:15 79.2 °F /  26.2 °C 56.0 °F /  13.3 °C 30.19in /  1022.2hPa Calm   3.0mph /  4.8km/h 45% 0.00in /  0mm WeatherDisplay:10.37 W/m2 CLR
15:30 78.8 °F /  26 °C 56.2 °F /  13.4 °C 30.19in /  1022.2hPa Calm   3.0mph /  4.8km/h 46% 0.00in /  0mm WeatherDisplay:10.37 W/m2 CLR
15:45 80.3 °F /  26.8 °C 57.7 °F /  14.3 °C 30.18in /  1021.9hPa Calm   1.0mph /  1.6km/h 46% 0.00in /  0mm WeatherDisplay:10.37 W/m2 CLR
16:00 79.3 °F /  26.3 °C 56.1 °F /  13.4 °C 30.17in /  1021.6hPa Calm   2.0mph /  3.2km/h 45% 0.00in /  0mm WeatherDisplay:10.37 W/m2 CLR
16:15 79.9 °F /  26.6 °C 54.7 °F /  12.6 °C 30.17in /  1021.6hPa WNW 1.0mph /  1.6km/h 3.0mph /  4.8km/h 42% 0.00in /  0mm WeatherDisplay:10.37 W/m2 CLR
16:30 80.1 °F /  26.7 °C 54.3 °F /  12.4 °C 30.16in /  1021.2hPa Calm   3.0mph /  4.8km/h 41% 0.00in /  0mm WeatherDisplay:10.37 W/m2 CLR
16:45 80.3 °F /  26.8 °C 54.5 °F /  12.5 °C 30.15in /  1020.9hPa Calm   3.0mph /  4.8km/h 41% 0.00in /  0mm WeatherDisplay:10.37 W/m2 CLR
17:00 79.3 °F /  26.3 °C 53.6 °F /  12 °C 30.15in /  1020.9hPa Calm   3.0mph /  4.8km/h 41% 0.00in /  0mm WeatherDisplay:10.37 W/m2 CLR
17:15 80.3 °F /  26.8 °C 54.5 °F /  12.5 °C 30.15in /  1020.9hPa Calm   2.0mph /  3.2km/h 41% 0.00in /  0mm WeatherDisplay:10.37 W/m2 CLR
17:30 80.2 °F /  26.8 °C 54.4 °F /  12.4 °C 30.15in /  1020.9hPa Calm   1.0mph /  1.6km/h 41% 0.00in /  0mm WeatherDisplay:10.37 W/m2 CLR
17:45 79.8 °F /  26.6 °C 54.0 °F /  12.2 °C 30.14in /  1020.5hPa Calm   3.0mph /  4.8km/h 41% 0.00in /  0mm WeatherDisplay:10.37 W/m2 SCT
18:00 79.7 °F /  26.5 °C 54.6 °F /  12.6 °C 30.14in /  1020.5hPa Calm   5.0mph /  8km/h 42% 0.00in /  0mm WeatherDisplay:10.37 W/m2 SCT
18:15 78.9 °F /  26.1 °C 55.2 °F /  12.9 °C 30.13in /  1020.2hPa Calm   2.0mph /  3.2km/h 44% 0.00in /  0mm WeatherDisplay:10.37 W/m2 SCT
18:30 78.5 °F /  25.8 °C 53.5 °F /  11.9 °C 30.13in /  1020.2hPa Calm   2.0mph /  3.2km/h 42% 0.00in /  0mm WeatherDisplay:10.37 W/m2 SCT
18:45 77.7 °F /  25.4 °C 53.4 °F /  11.9 °C 30.13in /  1020.2hPa Calm   1.0mph /  1.6km/h 43% 0.00in /  0mm WeatherDisplay:10.37 W/m2 SCT
19:00 76.7 °F /  24.8 °C 53.8 °F /  12.1 °C 30.13in /  1020.2hPa Calm   2.0mph /  3.2km/h 45% 0.00in /  0mm WeatherDisplay:10.37 W/m2 SCT
19:15 76.2 °F /  24.6 °C 54.5 °F /  12.5 °C 30.13in /  1020.2hPa Calm   2.0mph /  3.2km/h 47% 0.00in /  0mm WeatherDisplay:10.37 W/m2 SCT
19:30 75.3 °F /  24.1 °C 54.3 °F /  12.4 °C 30.13in /  1020.2hPa Calm     48% 0.00in /  0mm WeatherDisplay:10.37 W/m2 SCT
19:45 74.4 °F /  23.6 °C 54.5 °F /  12.5 °C 30.13in /  1020.2hPa Calm     50% 0.00in /  0mm WeatherDisplay:10.37 W/m2 SCT
20:00 73.5 °F /  23.1 °C 54.3 °F /  12.4 °C 30.13in /  1020.2hPa Calm     51% 0.00in /  0mm WeatherDisplay:10.37 W/m2 SCT
20:15 72.7 °F /  22.6 °C 55.1 °F /  12.8 °C 30.13in /  1020.2hPa Calm     54% 0.00in /  0mm WeatherDisplay:10.37 W/m2 SCT
20:30 72.0 °F /  22.2 °C 55.4 °F /  13 °C 30.14in /  1020.5hPa Calm     56% 0.00in /  0mm WeatherDisplay:10.37 W/m2 SCT
20:45 71.4 °F /  21.9 °C 55.4 °F /  13 °C 30.14in /  1020.5hPa Calm     57% 0.00in /  0mm WeatherDisplay:10.37 W/m2 SCT
21:00 71.0 °F /  21.7 °C 55.5 °F /  13.1 °C 30.15in /  1020.9hPa Calm     58% 0.00in /  0mm WeatherDisplay:10.37 W/m2 SCT
21:15 70.7 °F /  21.5 °C 55.7 °F /  13.2 °C 30.15in /  1020.9hPa Calm     59% 0.00in /  0mm WeatherDisplay:10.37 W/m2 SCT
21:30 70.5 °F /  21.4 °C 55.5 °F /  13.1 °C 30.15in /  1020.9hPa Calm     59% 0.00in /  0mm WeatherDisplay:10.37 W/m2 SCT
21:45 70.1 °F /  21.2 °C 55.5 °F /  13.1 °C 30.15in /  1020.9hPa Calm     60% 0.00in /  0mm WeatherDisplay:10.37 W/m2 SCT
22:00 69.6 °F /  20.9 °C 56.0 °F /  13.3 °C 30.16in /  1021.2hPa Calm     62% 0.00in /  0mm WeatherDisplay:10.37 W/m2 SCT
22:15 68.9 °F /  20.5 °C 55.3 °F /  12.9 °C 30.16in /  1021.2hPa Calm     62% 0.00in /  0mm WeatherDisplay:10.37 W/m2 SCT
22:30 68.3 °F /  20.2 °C 56.1 °F /  13.4 °C 30.16in /  1021.2hPa Calm     65% 0.00in /  0mm WeatherDisplay:10.37 W/m2 SCT
22:45 67.3 °F /  19.6 °C 56.0 °F /  13.3 °C 30.16in /  1021.2hPa Calm     67% 0.00in /  0mm WeatherDisplay:10.37 W/m2 SCT
23:00 66.4 °F /  19.1 °C 55.9 °F /  13.3 °C 30.16in /  1021.2hPa Calm     69% 0.00in /  0mm WeatherDisplay:10.37 W/m2 SCT
23:15 65.8 °F /  18.8 °C 56.1 °F /  13.4 °C 30.15in /  1020.9hPa Calm     71% 0.00in /  0mm WeatherDisplay:10.37 W/m2 SCT
23:30 65.3 °F /  18.5 °C 56.0 °F /  13.3 °C 30.15in /  1020.9hPa Calm     72% 0.00in /  0mm WeatherDisplay:10.37 W/m2 SCT
23:45 65.0 °F /  18.3 °C 56.1 °F /  13.4 °C 30.15in /  1020.9hPa Calm     73% 0.00in /  0mm WeatherDisplay:10.37 W/m2 SCT
Piedmont Bend
Compliments of Weather Underground - 4 mb